Time;durP1;ratioP1;P1;durP2;ratioP2;P2;SDS_P1;SDS_P2;PMS_P1;PMS_P2;Temp;Humidity;BMP_temperature;BMP_pressure;BME280_temperature;BME280_humidity;BME280_pressure;Samples;Min_cycle;Max_cycle;Signal;HPM_P1;HPM_P2
2022/05/18 00:01:15;;;;;;;7.53;3.70;;;;;;;;;;5038325;28;20257;-74
2022/05/18 00:03:43;;;;;;;10.53;3.20;;;;;;;;;;5041821;28;20199;-73
2022/05/18 00:06:11;;;;;;;8.57;3.10;;;;;;;;;;5041847;28;20288;-73
2022/05/18 00:08:38;;;;;;;7.83;2.90;;;;;;;;;;5040680;28;20206;-73
2022/05/18 00:11:07;;;;;;;7.40;3.40;;;;;;;;;;5037123;28;20227;-74
2022/05/18 00:13:36;;;;;;;10.90;3.50;;;;;;;;;;5042703;28;20214;-73
2022/05/18 00:16:03;;;;;;;5.73;3.23;;;;;;;;;;5040631;28;20297;-73
2022/05/18 00:18:30;;;;;;;8.20;3.30;;;;;;;;;;5041923;28;20329;-74
2022/05/18 00:21:22;;;;;;;8.13;3.20;;;;;;;;;;5040929;28;20357;-73
2022/05/18 00:23:49;;;;;;;7.57;3.07;;;;;;;;;;5040411;28;20235;-73
2022/05/18 00:26:17;;;;;;;5.27;2.77;;;;;;;;;;5042556;28;20239;-73
2022/05/18 00:28:46;;;;;;;5.07;3.30;;;;;;;;;;5042158;28;20214;-73
2022/05/18 00:31:14;;;;;;;6.50;3.10;;;;;;;;;;5042548;28;20258;-73
2022/05/18 00:33:41;;;;;;;8.00;3.27;;;;;;;;;;5040050;28;20205;-73
2022/05/18 00:36:08;;;;;;;6.50;3.27;;;;;;;;;;5042047;28;20230;-73
2022/05/18 00:38:35;;;;;;;7.30;3.17;;;;;;;;;;5043094;28;20688;-73
2022/05/18 00:41:02;;;;;;;5.67;3.40;;;;;;;;;;5040637;28;20314;-73
2022/05/18 00:43:37;;;;;;;4.83;3.03;;;;;;;;;;5041819;28;20253;-74
2022/05/18 00:46:07;;;;;;;6.17;3.20;;;;;;;;;;5042282;28;20221;-73
2022/05/18 00:48:35;;;;;;;6.57;3.47;;;;;;;;;;5042457;28;20857;-73
2022/05/18 00:51:03;;;;;;;6.07;3.27;;;;;;;;;;5044987;28;20316;-73
2022/05/18 00:53:32;;;;;;;5.50;3.30;;;;;;;;;;5042625;28;20213;-73
2022/05/18 00:56:01;;;;;;;6.53;3.23;;;;;;;;;;5046817;28;20214;-73
2022/05/18 00:58:32;;;;;;;6.53;3.70;;;;;;;;;;5045923;28;20290;-73
2022/05/18 01:01:00;;;;;;;3.97;2.90;;;;;;;;;;5042523;28;20725;-73
2022/05/18 01:03:30;;;;;;;9.03;3.17;;;;;;;;;;5042728;28;20661;-74
2022/05/18 01:05:59;;;;;;;11.03;3.40;;;;;;;;;;5043603;28;20286;-73
2022/05/18 01:08:32;;;;;;;5.50;3.43;;;;;;;;;;5041129;28;20204;-74
2022/05/18 01:10:59;;;;;;;7.93;3.80;;;;;;;;;;5044626;28;20235;-73
2022/05/18 01:13:26;;;;;;;8.23;3.50;;;;;;;;;;5043222;28;20199;-73
2022/05/18 01:15:55;;;;;;;5.87;3.63;;;;;;;;;;5046864;28;20214;-73
2022/05/18 01:18:22;;;;;;;6.50;3.57;;;;;;;;;;5043548;28;20654;-73
2022/05/18 01:20:51;;;;;;;7.30;3.50;;;;;;;;;;5047882;28;20215;-73
2022/05/18 01:23:26;;;;;;;6.57;3.67;;;;;;;;;;5048125;28;20199;-73
2022/05/18 01:26:01;;;;;;;11.07;3.73;;;;;;;;;;5043760;28;20203;-73
2022/05/18 01:28:34;;;;;;;8.53;3.80;;;;;;;;;;5042685;28;20660;-73
2022/05/18 01:31:04;;;;;;;5.53;3.40;;;;;;;;;;5043693;28;20318;-73
2022/05/18 01:33:32;;;;;;;14.00;3.97;;;;;;;;;;5045603;28;20203;-74
2022/05/18 01:35:59;;;;;;;6.77;3.70;;;;;;;;;;5043754;28;20241;-74
2022/05/18 01:38:26;;;;;;;12.37;4.40;;;;;;;;;;5040354;28;20221;-73
2022/05/18 01:40:58;;;;;;;7.17;3.80;;;;;;;;;;5044644;28;20250;-73
2022/05/18 01:43:41;;;;;;;9.87;3.87;;;;;;;;;;5045569;28;20253;-73
2022/05/18 01:46:09;;;;;;;10.03;3.77;;;;;;;;;;5043102;28;20203;-73
2022/05/18 01:48:44;;;;;;;9.67;4.40;;;;;;;;;;5046118;28;20287;-73
2022/05/18 01:51:12;;;;;;;9.77;4.20;;;;;;;;;;5045323;28;20652;-73
2022/05/18 01:53:39;;;;;;;5.43;4.10;;;;;;;;;;5046291;28;20263;-75
2022/05/18 01:56:08;;;;;;;9.23;4.27;;;;;;;;;;5046827;28;20290;-75
2022/05/18 01:58:35;;;;;;;7.93;3.80;;;;;;;;;;5043922;28;20216;-75
2022/05/18 02:01:04;;;;;;;7.70;3.93;;;;;;;;;;5044159;28;20760;-75
2022/05/18 02:03:32;;;;;;;8.40;3.83;;;;;;;;;;5046622;28;20265;-75
2022/05/18 02:05:59;;;;;;;8.60;4.03;;;;;;;;;;5050108;28;20238;-75
2022/05/18 02:08:26;;;;;;;8.10;3.80;;;;;;;;;;5048354;28;20208;-75
2022/05/18 02:10:54;;;;;;;12.83;4.20;;;;;;;;;;5045984;28;20233;-75
2022/05/18 02:13:21;;;;;;;6.47;3.50;;;;;;;;;;5043244;28;20594;-75
2022/05/18 02:15:49;;;;;;;6.90;3.80;;;;;;;;;;5043587;28;20203;-75
2022/05/18 02:18:18;;;;;;;7.70;4.30;;;;;;;;;;5049876;28;20661;-75
2022/05/18 02:20:46;;;;;;;8.57;4.07;;;;;;;;;;5046743;28;20227;-75
2022/05/18 02:23:13;;;;;;;8.37;3.83;;;;;;;;;;5047178;28;20234;-75
2022/05/18 02:25:40;;;;;;;8.53;4.10;;;;;;;;;;5047319;28;20740;-75
2022/05/18 02:28:08;;;;;;;9.33;4.27;;;;;;;;;;5048012;28;20272;-75
2022/05/18 02:30:35;;;;;;;10.17;4.47;;;;;;;;;;5044535;28;20238;-75
2022/05/18 02:33:02;;;;;;;8.53;4.33;;;;;;;;;;5045902;28;20287;-75
2022/05/18 02:35:31;;;;;;;7.37;4.40;;;;;;;;;;5048418;28;20203;-75
2022/05/18 02:37:58;;;;;;;8.97;4.80;;;;;;;;;;5047700;28;20309;-75
2022/05/18 02:40:25;;;;;;;10.40;4.30;;;;;;;;;;5049977;28;20219;-75
2022/05/18 02:42:53;;;;;;;16.17;4.57;;;;;;;;;;5047143;28;20242;-75
2022/05/18 02:45:20;;;;;;;6.97;4.00;;;;;;;;;;5048596;28;20294;-75
2022/05/18 02:47:47;;;;;;;11.13;4.60;;;;;;;;;;5051437;28;20685;-75
2022/05/18 02:50:14;;;;;;;11.27;4.13;;;;;;;;;;5050595;28;20209;-75
2022/05/18 02:52:43;;;;;;;7.33;4.50;;;;;;;;;;5044848;28;20258;-75
2022/05/18 02:57:56;;;;;;;5.97;4.00;;;;;;;;;;5043548;28;20221;-75
2022/05/18 03:00:23;;;;;;;9.30;3.80;;;;;;;;;;5046721;28;20608;-75
2022/05/18 03:02:50;;;;;;;7.43;3.90;;;;;;;;;;5049264;28;20604;-75
2022/05/18 03:05:17;;;;;;;8.93;4.27;;;;;;;;;;5044739;28;20294;-75
2022/05/18 03:07:46;;;;;;;9.70;4.23;;;;;;;;;;5046822;28;20297;-75
2022/05/18 03:10:15;;;;;;;9.27;4.43;;;;;;;;;;5047735;28;20370;-75
2022/05/18 03:12:43;;;;;;;10.90;4.40;;;;;;;;;;5046372;28;20230;-75
2022/05/18 03:15:11;;;;;;;8.47;4.97;;;;;;;;;;5044422;28;20209;-75
2022/05/18 03:17:38;;;;;;;8.93;4.10;;;;;;;;;;5044018;28;20208;-75
2022/05/18 03:20:06;;;;;;;10.77;4.33;;;;;;;;;;5043635;28;20521;-75
2022/05/18 03:25:21;;;;;;;10.67;4.37;;;;;;;;;;5046142;28;20760;-75
2022/05/18 03:27:49;;;;;;;8.23;4.30;;;;;;;;;;5042840;28;20217;-75
2022/05/18 03:30:16;;;;;;;13.47;4.80;;;;;;;;;;5045316;28;20215;-75
2022/05/18 03:32:44;;;;;;;13.47;4.20;;;;;;;;;;5045630;28;20249;-75
2022/05/18 03:35:12;;;;;;;6.97;3.97;;;;;;;;;;5045075;28;20207;-75
2022/05/18 03:37:39;;;;;;;10.73;4.77;;;;;;;;;;5046553;28;20203;-75
2022/05/18 03:40:07;;;;;;;8.33;4.27;;;;;;;;;;5049601;28;20214;-75
2022/05/18 03:42:35;;;;;;;9.27;4.60;;;;;;;;;;5045262;28;20289;-75
2022/05/18 03:45:02;;;;;;;11.83;4.80;;;;;;;;;;5045951;28;20225;-75
2022/05/18 03:47:30;;;;;;;6.97;4.33;;;;;;;;;;5047503;28;20203;-75
2022/05/18 03:49:57;;;;;;;13.77;4.57;;;;;;;;;;5046430;28;20203;-75
2022/05/18 03:52:24;;;;;;;6.17;3.97;;;;;;;;;;5042975;28;20309;-75
2022/05/18 03:54:52;;;;;;;9.07;4.47;;;;;;;;;;5044545;28;20289;-75
2022/05/18 03:57:19;;;;;;;12.70;4.77;;;;;;;;;;5044900;28;20203;-75
2022/05/18 03:59:47;;;;;;;8.07;4.07;;;;;;;;;;5049263;28;20222;-75
2022/05/18 04:02:15;;;;;;;8.17;4.73;;;;;;;;;;5047542;28;20234;-75
2022/05/18 04:04:42;;;;;;;8.77;4.47;;;;;;;;;;5045351;28;20286;-75
2022/05/18 04:07:10;;;;;;;7.23;4.07;;;;;;;;;;5044584;28;20237;-76
2022/05/18 04:09:37;;;;;;;9.50;5.00;;;;;;;;;;5043128;28;20650;-75
2022/05/18 04:12:04;;;;;;;8.87;5.20;;;;;;;;;;5044085;28;20241;-76
2022/05/18 04:14:31;;;;;;;9.00;4.97;;;;;;;;;;5044409;28;20231;-75
2022/05/18 04:17:00;;;;;;;10.07;4.50;;;;;;;;;;5045419;28;20278;-76
2022/05/18 04:19:27;;;;;;;9.17;4.67;;;;;;;;;;5042303;28;20203;-75
2022/05/18 04:21:54;;;;;;;11.77;5.03;;;;;;;;;;5043376;28;20215;-75
2022/05/18 04:24:21;;;;;;;7.50;4.57;;;;;;;;;;5043824;28;20230;-76
2022/05/18 04:26:49;;;;;;;9.70;5.10;;;;;;;;;;5044836;28;20700;-76
2022/05/18 04:29:16;;;;;;;9.30;4.93;;;;;;;;;;5040915;28;20261;-75
2022/05/18 04:31:43;;;;;;;11.63;4.50;;;;;;;;;;5043972;28;20258;-75
2022/05/18 04:34:11;;;;;;;9.53;4.57;;;;;;;;;;5043798;28;20293;-75
2022/05/18 04:36:39;;;;;;;9.00;5.13;;;;;;;;;;5046599;28;20819;-75
2022/05/18 04:39:06;;;;;;;7.53;4.40;;;;;;;;;;5045295;28;20213;-76
2022/05/18 04:41:33;;;;;;;10.60;4.60;;;;;;;;;;5044188;28;20243;-75
2022/05/18 04:44:00;;;;;;;9.53;4.53;;;;;;;;;;5045894;28;20290;-76
2022/05/18 04:46:27;;;;;;;12.83;4.50;;;;;;;;;;5045690;28;20583;-75
2022/05/18 04:48:54;;;;;;;8.40;4.53;;;;;;;;;;5046096;28;20198;-76
2022/05/18 04:51:23;;;;;;;10.13;4.53;;;;;;;;;;5044673;28;20345;-75
2022/05/18 04:53:50;;;;;;;8.47;4.80;;;;;;;;;;5045761;28;20196;-76
2022/05/18 04:56:18;;;;;;;9.00;4.70;;;;;;;;;;5043129;28;20199;-76
2022/05/18 04:59:06;;;;;;;10.53;4.70;;;;;;;;;;5045680;28;20203;-76
2022/05/18 05:01:34;;;;;;;8.47;4.53;;;;;;;;;;5044565;28;20226;-76
2022/05/18 05:04:01;;;;;;;9.70;4.00;;;;;;;;;;5043832;28;20769;-75
2022/05/18 05:06:31;;;;;;;10.40;4.03;;;;;;;;;;5044027;28;20203;-76
2022/05/18 05:08:58;;;;;;;9.37;4.83;;;;;;;;;;5047141;28;20258;-76
2022/05/18 05:11:25;;;;;;;13.70;4.43;;;;;;;;;;5043275;28;20223;-76
2022/05/18 05:13:52;;;;;;;14.03;3.93;;;;;;;;;;5041444;28;20246;-76
2022/05/18 05:16:19;;;;;;;8.70;4.63;;;;;;;;;;5044899;28;20620;-76
2022/05/18 05:18:46;;;;;;;9.10;4.20;;;;;;;;;;5047797;28;20583;-76
2022/05/18 05:21:14;;;;;;;8.03;3.70;;;;;;;;;;5047588;28;20720;-76
2022/05/18 05:23:42;;;;;;;9.20;4.43;;;;;;;;;;5040615;28;20199;-75
2022/05/18 05:26:09;;;;;;;12.63;4.70;;;;;;;;;;5043608;28;20207;-76
2022/05/18 05:28:36;;;;;;;10.47;4.73;;;;;;;;;;5042509;28;20203;-75
2022/05/18 05:31:04;;;;;;;7.40;4.40;;;;;;;;;;5040026;28;20235;-75
2022/05/18 05:33:31;;;;;;;7.67;4.40;;;;;;;;;;5042003;28;20219;-75
2022/05/18 05:35:58;;;;;;;9.10;4.57;;;;;;;;;;5044019;28;20281;-74
2022/05/18 05:38:26;;;;;;;9.47;4.20;;;;;;;;;;5045518;28;20203;-75
2022/05/18 05:40:55;;;;;;;7.53;4.53;;;;;;;;;;5041525;28;20628;-75
2022/05/18 05:43:22;;;;;;;23.77;4.87;;;;;;;;;;5039996;28;20207;-76
2022/05/18 05:45:55;;;;;;;11.90;4.10;;;;;;;;;;5045439;28;20199;-74
2022/05/18 05:48:22;;;;;;;8.90;4.60;;;;;;;;;;5044189;28;20290;-75
2022/05/18 05:50:50;;;;;;;7.53;3.77;;;;;;;;;;5042045;28;20297;-75
2022/05/18 05:53:17;;;;;;;12.40;3.93;;;;;;;;;;5045384;28;20222;-76
2022/05/18 05:55:44;;;;;;;10.80;4.27;;;;;;;;;;5047238;28;20237;-76
2022/05/18 05:58:13;;;;;;;13.00;4.20;;;;;;;;;;5043590;28;20236;-75
2022/05/18 06:00:40;;;;;;;10.77;3.93;;;;;;;;;;5043478;28;20215;-75
2022/05/18 06:03:07;;;;;;;5.97;3.93;;;;;;;;;;5045730;28;20302;-76
2022/05/18 06:05:34;;;;;;;9.53;4.10;;;;;;;;;;5048602;28;20586;-76
2022/05/18 06:08:01;;;;;;;8.27;4.03;;;;;;;;;;5044248;28;20269;-76
2022/05/18 06:10:29;;;;;;;7.10;3.73;;;;;;;;;;5044754;28;20261;-76
2022/05/18 06:12:56;;;;;;;6.83;3.70;;;;;;;;;;5045021;28;20319;-76
2022/05/18 06:15:24;;;;;;;8.43;3.80;;;;;;;;;;5045415;28;20310;-77
2022/05/18 06:17:52;;;;;;;7.47;3.50;;;;;;;;;;5046304;28;20233;-75
2022/05/18 06:20:19;;;;;;;10.13;3.67;;;;;;;;;;5045829;28;20753;-74
2022/05/18 06:22:46;;;;;;;9.63;3.43;;;;;;;;;;5043594;28;20288;-75
2022/05/18 06:25:15;;;;;;;8.20;3.53;;;;;;;;;;5046034;28;20216;-76
2022/05/18 06:27:42;;;;;;;8.57;3.30;;;;;;;;;;5046627;28;20576;-76
2022/05/18 06:30:10;;;;;;;5.67;3.20;;;;;;;;;;5045506;28;20226;-75
2022/05/18 06:32:39;;;;;;;8.47;3.63;;;;;;;;;;5044952;28;20305;-76
2022/05/18 06:35:07;;;;;;;7.43;3.50;;;;;;;;;;5045107;28;20286;-76
2022/05/18 06:37:34;;;;;;;11.17;3.67;;;;;;;;;;5042979;28;20205;-77
2022/05/18 06:40:03;;;;;;;7.83;3.00;;;;;;;;;;5046737;28;20210;-77
2022/05/18 06:42:31;;;;;;;12.17;3.90;;;;;;;;;;5045039;28;20690;-76
2022/05/18 06:44:59;;;;;;;12.10;3.80;;;;;;;;;;5044854;28;20288;-76
2022/05/18 06:47:26;;;;;;;6.93;3.00;;;;;;;;;;5041701;28;20213;-77
2022/05/18 06:49:55;;;;;;;11.03;3.43;;;;;;;;;;5042610;28;20257;-76
2022/05/18 06:52:22;;;;;;;6.77;2.90;;;;;;;;;;5044756;28;20301;-77
2022/05/18 06:54:49;;;;;;;5.93;3.00;;;;;;;;;;5046354;28;20214;-76
2022/05/18 06:57:17;;;;;;;6.03;3.13;;;;;;;;;;5043179;28;20209;-75
2022/05/18 06:59:44;;;;;;;8.27;3.30;;;;;;;;;;5043829;28;20282;-77
2022/05/18 07:02:12;;;;;;;8.30;3.30;;;;;;;;;;5044190;28;20243;-76
2022/05/18 07:05:18;;;;;;;6.30;3.20;;;;;;;;;;5040702;28;20203;-77
2022/05/18 07:07:47;;;;;;;8.07;3.20;;;;;;;;;;5028695;28;20662;-77
2022/05/18 07:10:14;;;;;;;8.70;2.90;;;;;;;;;;5042851;28;20231;-77
2022/05/18 07:12:41;;;;;;;8.97;3.10;;;;;;;;;;5044093;28;20215;-75
2022/05/18 07:15:09;;;;;;;10.17;3.07;;;;;;;;;;5045093;28;20230;-76
2022/05/18 07:17:36;;;;;;;10.73;3.13;;;;;;;;;;5043865;28;20235;-76
2022/05/18 07:20:04;;;;;;;7.73;2.97;;;;;;;;;;5045208;28;20207;-76
2022/05/18 07:22:31;;;;;;;9.87;3.17;;;;;;;;;;5043414;28;20209;-76
2022/05/18 07:24:59;;;;;;;7.40;2.93;;;;;;;;;;5046555;28;20287;-76
2022/05/18 07:27:27;;;;;;;8.70;3.20;;;;;;;;;;5044089;28;20667;-76
2022/05/18 07:29:54;;;;;;;8.30;3.33;;;;;;;;;;5046302;28;20581;-76
2022/05/18 07:32:21;;;;;;;9.53;3.23;;;;;;;;;;5041310;28;20712;-76
2022/05/18 07:34:48;;;;;;;9.40;3.20;;;;;;;;;;5046347;28;20306;-77
2022/05/18 07:40:16;;;;;;;7.20;3.00;;;;;;;;;;5028990;28;20218;-76
2022/05/18 07:42:43;;;;;;;13.37;3.33;;;;;;;;;;5040129;28;20199;-76
2022/05/18 07:45:11;;;;;;;12.63;3.50;;;;;;;;;;5043264;28;20704;-76
2022/05/18 07:47:38;;;;;;;9.93;3.80;;;;;;;;;;5042003;28;20214;-75
2022/05/18 07:50:06;;;;;;;20.17;3.33;;;;;;;;;;5042312;28;20249;-76
2022/05/18 07:52:34;;;;;;;8.90;2.70;;;;;;;;;;5042113;28;20296;-77
2022/05/18 07:55:01;;;;;;;7.80;2.87;;;;;;;;;;5043473;28;20290;-75
2022/05/18 07:57:29;;;;;;;7.03;3.10;;;;;;;;;;5040483;28;20243;-78
2022/05/18 07:59:59;;;;;;;9.13;3.30;;;;;;;;;;5043227;28;20634;-76
2022/05/18 08:02:29;;;;;;;7.78;3.20;;;;;;;;;;5043387;28;20226;-75
2022/05/18 08:04:56;;;;;;;9.05;2.60;;;;;;;;;;5046515;28;20207;-75
2022/05/18 08:07:23;;;;;;;8.02;3.08;;;;;;;;;;5043703;28;20583;-76
2022/05/18 08:15:22;;;;;;;5.38;2.45;;;;;;;;;;5045444;28;20208;-78
2022/05/18 08:17:49;;;;;;;7.70;2.80;;;;;;;;;;5044147;28;20201;-75
2022/05/18 08:20:18;;;;;;;7.60;2.60;;;;;;;;;;5043302;28;20204;-78
2022/05/18 08:22:46;;;;;;;4.13;2.25;;;;;;;;;;5043130;28;20290;-77
2022/05/18 08:25:14;;;;;;;6.95;2.53;;;;;;;;;;5042492;28;21006;-77
2022/05/18 08:27:44;;;;;;;8.02;2.60;;;;;;;;;;5038887;28;20293;-77
2022/05/18 08:30:12;;;;;;;4.93;2.28;;;;;;;;;;5041908;28;20746;-78
2022/05/18 08:32:39;;;;;;;5.47;2.50;;;;;;;;;;5038728;28;20308;-76
2022/05/18 08:35:07;;;;;;;6.70;2.38;;;;;;;;;;5041904;28;20222;-76
2022/05/18 08:37:38;;;;;;;5.95;2.63;;;;;;;;;;5044465;28;20200;-77
2022/05/18 08:40:06;;;;;;;7.07;2.60;;;;;;;;;;5039194;28;20200;-76
2022/05/18 08:42:35;;;;;;;5.75;2.03;;;;;;;;;;5045049;28;20254;-76
2022/05/18 08:45:04;;;;;;;7.97;2.60;;;;;;;;;;5043394;28;20200;-76
2022/05/18 08:47:37;;;;;;;5.50;2.63;;;;;;;;;;5039842;28;20221;-77
2022/05/18 08:50:07;;;;;;;4.80;2.33;;;;;;;;;;5044588;28;20224;-76
2022/05/18 08:52:39;;;;;;;3.83;2.30;;;;;;;;;;5042879;28;20212;-76
2022/05/18 08:55:30;;;;;;;7.20;2.53;;;;;;;;;;5041936;28;20295;-77
2022/05/18 08:57:59;;;;;;;6.83;2.80;;;;;;;;;;5043995;28;20306;-76
2022/05/18 09:00:31;;;;;;;7.57;2.53;;;;;;;;;;5043346;28;20227;-76
2022/05/18 09:03:00;;;;;;;6.50;2.47;;;;;;;;;;5041950;28;20304;-76
2022/05/18 09:05:31;;;;;;;8.50;2.40;;;;;;;;;;5043095;28;20207;-76
2022/05/18 09:08:14;;;;;;;10.57;2.57;;;;;;;;;;5043400;28;20646;-76
2022/05/18 09:10:45;;;;;;;7.90;2.50;;;;;;;;;;5045903;28;20233;-76
2022/05/18 09:13:13;;;;;;;11.93;3.10;;;;;;;;;;5049126;28;20612;-77
2022/05/18 09:15:54;;;;;;;7.70;2.70;;;;;;;;;;5050845;28;20198;-78
2022/05/18 09:18:24;;;;;;;8.07;2.63;;;;;;;;;;5053612;28;20226;-77
2022/05/18 09:20:56;;;;;;;6.07;2.67;;;;;;;;;;5051953;28;20683;-77
2022/05/18 09:23:29;;;;;;;5.37;2.40;;;;;;;;;;5047206;28;20290;-77
2022/05/18 09:26:02;;;;;;;9.27;2.50;;;;;;;;;;5047684;28;20212;-75
2022/05/18 09:28:36;;;;;;;6.10;2.83;;;;;;;;;;5047172;28;20207;-78
2022/05/18 09:31:10;;;;;;;4.33;2.13;;;;;;;;;;5042639;28;20231;-77
2022/05/18 09:33:45;;;;;;;6.43;2.40;;;;;;;;;;5044548;28;20291;-76
2022/05/18 09:36:21;;;;;;;5.57;2.80;;;;;;;;;;5047542;28;20202;-77
2022/05/18 09:38:53;;;;;;;5.83;2.70;;;;;;;;;;5047188;28;20227;-76
2022/05/18 09:41:22;;;;;;;12.60;3.10;;;;;;;;;;5050306;28;20581;-77
2022/05/18 09:43:54;;;;;;;7.73;2.50;;;;;;;;;;5050842;28;20191;-78
2022/05/18 09:46:26;;;;;;;4.50;2.63;;;;;;;;;;5049417;28;20207;-77
2022/05/18 09:48:55;;;;;;;5.37;2.30;;;;;;;;;;5051138;28;20855;-77
2022/05/18 09:51:24;;;;;;;9.37;2.70;;;;;;;;;;5047512;28;20237;-77
2022/05/18 09:53:51;;;;;;;4.63;2.70;;;;;;;;;;5047234;28;20227;-77
2022/05/18 09:56:21;;;;;;;6.30;2.80;;;;;;;;;;5048625;28;20237;-77
2022/05/18 09:58:49;;;;;;;7.57;2.43;;;;;;;;;;5047849;28;20597;-76
2022/05/18 10:09:43;;;;;;;6.50;2.30;;;;;;;;;;5045351;28;20206;-78
2022/05/18 10:12:14;;;;;;;4.97;2.03;;;;;;;;;;5049425;28;20214;-77
2022/05/18 10:14:41;;;;;;;7.60;2.50;;;;;;;;;;5045992;28;20219;-78
2022/05/18 10:17:10;;;;;;;7.77;2.40;;;;;;;;;;5048699;28;20213;-76
2022/05/18 10:19:44;;;;;;;4.60;2.43;;;;;;;;;;5048778;28;20222;-77
2022/05/18 10:22:13;;;;;;;5.83;2.20;;;;;;;;;;5047270;28;20221;-76
2022/05/18 10:24:42;;;;;;;7.27;2.37;;;;;;;;;;5050869;28;20199;-76
2022/05/18 10:27:20;;;;;;;5.33;2.50;;;;;;;;;;5048398;28;20245;-77
2022/05/18 10:29:52;;;;;;;8.93;2.40;;;;;;;;;;5046168;28;20235;-78
2022/05/18 10:32:22;;;;;;;8.57;2.47;;;;;;;;;;5049257;28;20326;-77
2022/05/18 10:34:53;;;;;;;4.27;2.30;;;;;;;;;;5046825;28;20705;-78
2022/05/18 10:37:31;;;;;;;5.33;2.10;;;;;;;;;;5046049;28;20195;-77
2022/05/18 10:40:01;;;;;;;5.77;2.13;;;;;;;;;;5050085;28;20203;-78
2022/05/18 10:42:30;;;;;;;6.33;2.40;;;;;;;;;;5046480;28;20199;-75
2022/05/18 10:44:58;;;;;;;5.43;2.20;;;;;;;;;;5043633;28;20437;-75
2022/05/18 10:47:27;;;;;;;6.23;2.40;;;;;;;;;;5043474;28;20688;-75
2022/05/18 10:50:11;;;;;;;4.83;2.00;;;;;;;;;;5044327;28;20252;-73
2022/05/18 10:52:39;;;;;;;10.77;1.97;;;;;;;;;;5040914;28;20298;-73
2022/05/18 10:55:14;;;;;;;5.13;2.10;;;;;;;;;;5040728;28;20593;-74
2022/05/18 10:57:41;;;;;;;4.50;2.03;;;;;;;;;;5039727;28;20202;-73
2022/05/18 11:00:10;;;;;;;3.13;1.80;;;;;;;;;;5043794;28;20569;-74
2022/05/18 11:02:42;;;;;;;4.43;2.00;;;;;;;;;;5047346;28;20639;-77
2022/05/18 11:05:18;;;;;;;3.87;2.57;;;;;;;;;;5047020;28;20255;-77
2022/05/18 11:07:45;;;;;;;6.43;2.17;;;;;;;;;;5047342;28;20318;-77
2022/05/18 11:10:13;;;;;;;7.47;2.33;;;;;;;;;;5050045;28;20689;-77
2022/05/18 11:12:44;;;;;;;7.73;2.50;;;;;;;;;;5047228;28;20200;-78
2022/05/18 11:15:14;;;;;;;3.40;2.10;;;;;;;;;;5049395;28;20235;-77
2022/05/18 11:17:47;;;;;;;2.63;1.80;;;;;;;;;;5042402;28;20641;-78
2022/05/18 11:20:21;;;;;;;7.63;2.47;;;;;;;;;;5047317;28;20213;-78
2022/05/18 11:22:53;;;;;;;4.27;2.60;;;;;;;;;;5044689;28;20213;-76
2022/05/18 11:25:24;;;;;;;6.20;2.50;;;;;;;;;;5049576;28;20195;-78
2022/05/18 11:27:53;;;;;;;4.93;2.10;;;;;;;;;;5049314;28;20203;-78
2022/05/18 11:30:22;;;;;;;4.97;2.40;;;;;;;;;;5051600;28;20218;-75
2022/05/18 11:32:57;;;;;;;6.03;2.47;;;;;;;;;;5047572;28;20734;-76
2022/05/18 11:35:39;;;;;;;9.10;2.47;;;;;;;;;;5049143;28;20727;-77
2022/05/18 11:38:28;;;;;;;7.87;2.40;;;;;;;;;;5044286;28;20207;-77
2022/05/18 11:41:00;;;;;;;8.13;2.80;;;;;;;;;;5011393;28;20281;-78
2022/05/18 11:43:35;;;;;;;7.03;2.33;;;;;;;;;;5048533;28;20297;-76
2022/05/18 11:46:12;;;;;;;3.37;2.40;;;;;;;;;;5045900;28;20214;-75
2022/05/18 11:48:46;;;;;;;4.57;2.67;;;;;;;;;;5047003;28;20212;-77
2022/05/18 11:51:21;;;;;;;6.03;3.30;;;;;;;;;;5046698;28;20319;-77
2022/05/18 11:53:53;;;;;;;5.73;2.70;;;;;;;;;;5047530;28;20317;-77
2022/05/18 11:56:26;;;;;;;7.27;3.13;;;;;;;;;;5048293;28;20207;-77
2022/05/18 11:59:11;;;;;;;6.17;2.47;;;;;;;;;;5046379;28;20709;-77
2022/05/18 12:01:45;;;;;;;5.33;2.87;;;;;;;;;;5046408;28;20226;-77
2022/05/18 12:04:21;;;;;;;4.17;2.30;;;;;;;;;;5049459;28;20291;-76
2022/05/18 12:07:01;;;;;;;3.57;2.10;;;;;;;;;;5043408;28;20214;-77
2022/05/18 12:09:46;;;;;;;4.37;2.40;;;;;;;;;;5045102;28;20559;-75
2022/05/18 12:12:18;;;;;;;6.03;2.50;;;;;;;;;;5043787;28;20310;-75
2022/05/18 12:14:49;;;;;;;5.20;2.20;;;;;;;;;;5044540;28;20247;-76
2022/05/18 12:17:18;;;;;;;6.80;2.73;;;;;;;;;;5044015;28;20293;-75
2022/05/18 12:19:50;;;;;;;4.40;2.20;;;;;;;;;;5041514;28;20453;-75
2022/05/18 12:22:21;;;;;;;5.30;2.40;;;;;;;;;;5045095;28;20602;-76
2022/05/18 12:24:49;;;;;;;5.07;2.50;;;;;;;;;;5042288;28;20742;-75
2022/05/18 12:27:17;;;;;;;5.03;2.13;;;;;;;;;;5042413;28;20298;-75
2022/05/18 12:29:45;;;;;;;4.70;2.60;;;;;;;;;;5043239;28;20260;-75
2022/05/18 12:32:13;;;;;;;7.83;2.73;;;;;;;;;;5044408;28;20325;-74
2022/05/18 12:34:44;;;;;;;6.63;2.60;;;;;;;;;;5042453;28;20250;-75
2022/05/18 12:37:23;;;;;;;4.50;2.70;;;;;;;;;;5044639;28;20603;-75
2022/05/18 12:39:51;;;;;;;4.47;2.70;;;;;;;;;;5046436;28;20589;-77
2022/05/18 12:42:22;;;;;;;4.40;2.40;;;;;;;;;;5040493;28;20254;-75
2022/05/18 12:44:52;;;;;;;5.93;2.30;;;;;;;;;;5042522;28;20230;-75
2022/05/18 12:47:21;;;;;;;4.53;2.17;;;;;;;;;;5048935;28;20199;-75
2022/05/18 12:49:52;;;;;;;3.70;2.20;;;;;;;;;;5045515;28;20743;-76
2022/05/18 12:52:39;;;;;;;3.50;2.30;;;;;;;;;;5047292;28;20728;-75
2022/05/18 12:55:14;;;;;;;4.47;2.53;;;;;;;;;;5046564;28;20260;-76
2022/05/18 12:57:50;;;;;;;5.50;2.40;;;;;;;;;;5046812;28;20718;-75
2022/05/18 13:00:41;;;;;;;10.77;2.60;;;;;;;;;;5049150;28;20285;-78
2022/05/18 13:03:24;;;;;;;9.10;2.70;;;;;;;;;;5042796;28;20211;-76
2022/05/18 13:05:54;;;;;;;8.83;2.63;;;;;;;;;;5048023;28;20604;-74
2022/05/18 13:08:37;;;;;;;4.67;2.43;;;;;;;;;;5051365;28;20719;-75
2022/05/18 13:11:10;;;;;;;4.87;2.67;;;;;;;;;;5041647;28;20790;-76
2022/05/18 13:13:56;;;;;;;4.20;2.50;;;;;;;;;;5042296;28;20290;-76
2022/05/18 13:16:37;;;;;;;6.07;2.63;;;;;;;;;;5046627;28;20253;-76
2022/05/18 13:19:04;;;;;;;4.13;2.43;;;;;;;;;;5044616;28;20298;-76
2022/05/18 13:21:32;;;;;;;4.40;2.43;;;;;;;;;;5041022;28;20521;-75
2022/05/18 13:24:04;;;;;;;4.47;2.27;;;;;;;;;;5047833;28;20290;-74
2022/05/18 13:26:35;;;;;;;4.07;2.00;;;;;;;;;;5046227;28;20246;-73
2022/05/18 13:29:06;;;;;;;8.70;2.30;;;;;;;;;;5047818;28;20212;-77
2022/05/18 13:31:34;;;;;;;5.37;2.30;;;;;;;;;;5045325;28;20232;-76
2022/05/18 13:34:05;;;;;;;3.50;2.20;;;;;;;;;;5046630;28;20666;-76
2022/05/18 13:36:37;;;;;;;5.67;2.47;;;;;;;;;;5047537;28;20281;-76
2022/05/18 13:39:06;;;;;;;3.90;2.33;;;;;;;;;;5045263;28;20215;-76
2022/05/18 13:41:36;;;;;;;5.50;2.50;;;;;;;;;;5045203;28;20316;-76
2022/05/18 13:44:04;;;;;;;6.20;2.80;;;;;;;;;;5047777;28;20260;-76
2022/05/18 13:46:33;;;;;;;3.23;2.20;;;;;;;;;;5042482;28;20322;-76
2022/05/18 13:49:03;;;;;;;4.70;2.07;;;;;;;;;;5043959;28;20751;-74
2022/05/18 13:51:32;;;;;;;6.70;2.40;;;;;;;;;;5045163;28;20223;-75
2022/05/18 13:54:02;;;;;;;5.53;2.07;;;;;;;;;;5045295;28;20239;-75
2022/05/18 13:56:32;;;;;;;6.03;2.70;;;;;;;;;;5039327;28;20222;-75
2022/05/18 13:59:04;;;;;;;6.17;2.13;;;;;;;;;;5044316;28;20191;-75
2022/05/18 14:01:33;;;;;;;3.20;2.07;;;;;;;;;;5043629;28;20223;-74
2022/05/18 14:04:00;;;;;;;8.87;2.40;;;;;;;;;;5046132;28;20589;-74
2022/05/18 14:06:27;;;;;;;7.00;2.30;;;;;;;;;;5047992;28;20315;-76
2022/05/18 14:08:58;;;;;;;5.03;2.40;;;;;;;;;;5044391;28;20201;-75
2022/05/18 14:11:26;;;;;;;5.17;2.40;;;;;;;;;;5044174;28;20228;-74
2022/05/18 14:13:54;;;;;;;5.13;2.20;;;;;;;;;;5045907;28;20290;-75
2022/05/18 14:16:27;;;;;;;4.70;2.17;;;;;;;;;;5041601;28;20235;-75
2022/05/18 14:18:55;;;;;;;6.37;2.30;;;;;;;;;;5044823;28;20210;-76
2022/05/18 14:21:23;;;;;;;4.73;2.00;;;;;;;;;;5044433;28;20257;-75
2022/05/18 14:23:52;;;;;;;4.03;2.37;;;;;;;;;;5044122;28;20580;-76
2022/05/18 14:26:22;;;;;;;8.63;2.07;;;;;;;;;;5042789;28;20625;-75
2022/05/18 14:28:49;;;;;;;6.30;2.57;;;;;;;;;;5040642;28;20637;-76
2022/05/18 14:31:19;;;;;;;4.30;2.33;;;;;;;;;;5040768;28;20238;-76
2022/05/18 14:33:50;;;;;;;3.60;2.20;;;;;;;;;;5045306;28;20211;-77
2022/05/18 14:36:22;;;;;;;3.60;2.17;;;;;;;;;;5039709;28;20314;-76
2022/05/18 14:38:51;;;;;;;3.63;2.17;;;;;;;;;;5040611;28;20200;-76
2022/05/18 14:41:22;;;;;;;5.97;2.20;;;;;;;;;;5045296;28;20233;-76
2022/05/18 14:43:49;;;;;;;6.77;2.57;;;;;;;;;;5037674;28;20204;-75
2022/05/18 14:46:22;;;;;;;6.43;2.20;;;;;;;;;;5045534;28;20206;-74
2022/05/18 14:49:00;;;;;;;6.07;2.10;;;;;;;;;;5043461;28;20199;-76
2022/05/18 14:51:30;;;;;;;8.67;2.50;;;;;;;;;;5038109;28;20227;-75
2022/05/18 14:53:58;;;;;;;6.40;1.90;;;;;;;;;;5044057;28;20217;-76
2022/05/18 14:56:28;;;;;;;4.30;2.20;;;;;;;;;;5042554;28;20321;-77
2022/05/18 14:58:57;;;;;;;5.63;2.03;;;;;;;;;;5042289;28;20246;-75
2022/05/18 15:01:32;;;;;;;4.63;2.13;;;;;;;;;;5040839;28;20219;-76
2022/05/18 15:04:06;;;;;;;5.20;2.20;;;;;;;;;;5043195;28;20210;-76
2022/05/18 15:06:33;;;;;;;3.77;2.00;;;;;;;;;;5041518;28;20831;-76
2022/05/18 15:09:02;;;;;;;6.80;2.33;;;;;;;;;;5042419;28;20281;-76
2022/05/18 15:11:33;;;;;;;4.37;2.40;;;;;;;;;;5043129;28;20220;-76
2022/05/18 15:14:04;;;;;;;3.47;2.00;;;;;;;;;;5043489;28;20199;-75
2022/05/18 15:16:36;;;;;;;5.27;2.30;;;;;;;;;;5041186;28;20785;-76
2022/05/18 15:19:04;;;;;;;6.97;2.10;;;;;;;;;;5043250;28;20210;-75